sensor_id;sensor_type;location;lat;lon;timestamp;temperature;humidity
18339;DHT22;9295;44.484;11.240;2023-04-07T00:00:37;4.90;99.90
18339;DHT22;9295;44.484;11.240;2023-04-07T00:03:06;4.90;99.90
18339;DHT22;9295;44.484;11.240;2023-04-07T00:05:35;4.80;99.90
18339;DHT22;9295;44.484;11.240;2023-04-07T00:08:03;4.80;99.90
18339;DHT22;9295;44.484;11.240;2023-04-07T00:10:33;4.80;99.90
18339;DHT22;9295;44.484;11.240;2023-04-07T00:13:01;4.80;99.90
18339;DHT22;9295;44.484;11.240;2023-04-07T00:15:30;4.80;99.90
18339;DHT22;9295;44.484;11.240;2023-04-07T00:17:58;4.80;99.90
18339;DHT22;9295;44.484;11.240;2023-04-07T00:20:27;4.80;99.90
18339;DHT22;9295;44.484;11.240;2023-04-07T00:22:55;4.70;99.90
18339;DHT22;9295;44.484;11.240;2023-04-07T00:25:23;4.70;99.90
18339;DHT22;9295;44.484;11.240;2023-04-07T00:27:53;4.80;99.90
18339;DHT22;9295;44.484;11.240;2023-04-07T00:30:21;4.80;99.90
18339;DHT22;9295;44.484;11.240;2023-04-07T00:32:49;4.80;99.90
18339;DHT22;9295;44.484;11.240;2023-04-07T00:35:18;4.80;99.90
18339;DHT22;9295;44.484;11.240;2023-04-07T00:37:47;4.80;99.90
18339;DHT22;9295;44.484;11.240;2023-04-07T00:40:16;4.80;99.90
18339;DHT22;9295;44.484;11.240;2023-04-07T00:42:44;4.80;99.90
18339;DHT22;9295;44.484;11.240;2023-04-07T00:45:14;4.80;99.90
18339;DHT22;9295;44.484;11.240;2023-04-07T00:47:43;4.90;99.90
18339;DHT22;9295;44.484;11.240;2023-04-07T00:50:11;4.80;99.90
18339;DHT22;9295;44.484;11.240;2023-04-07T00:52:40;4.90;99.90
18339;DHT22;9295;44.484;11.240;2023-04-07T00:55:09;4.90;99.90
18339;DHT22;9295;44.484;11.240;2023-04-07T00:57:37;4.90;99.90
18339;DHT22;9295;44.484;11.240;2023-04-07T01:00:07;4.90;99.90
18339;DHT22;9295;44.484;11.240;2023-04-07T01:02:40;4.80;99.90
18339;DHT22;9295;44.484;11.240;2023-04-07T01:05:15;4.90;99.90
18339;DHT22;9295;44.484;11.240;2023-04-07T01:07:54;4.90;99.90
18339;DHT22;9295;44.484;11.240;2023-04-07T01:10:27;4.90;99.90
18339;DHT22;9295;44.484;11.240;2023-04-07T01:13:07;4.80;99.90
18339;DHT22;9295;44.484;11.240;2023-04-07T01:15:38;4.80;99.90
18339;DHT22;9295;44.484;11.240;2023-04-07T01:18:12;4.80;99.90
18339;DHT22;9295;44.484;11.240;2023-04-07T01:20:44;4.80;99.90
18339;DHT22;9295;44.484;11.240;2023-04-07T01:23:22;4.80;99.90
18339;DHT22;9295;44.484;11.240;2023-04-07T01:26:06;4.80;99.90
18339;DHT22;9295;44.484;11.240;2023-04-07T01:31:48;4.80;99.90
18339;DHT22;9295;44.484;11.240;2023-04-07T01:34:18;4.80;99.90
18339;DHT22;9295;44.484;11.240;2023-04-07T01:36:49;4.70;99.90
18339;DHT22;9295;44.484;11.240;2023-04-07T01:39:17;4.70;99.90
18339;DHT22;9295;44.484;11.240;2023-04-07T01:41:46;4.70;99.90
18339;DHT22;9295;44.484;11.240;2023-04-07T01:44:16;4.70;99.90
18339;DHT22;9295;44.484;11.240;2023-04-07T01:46:46;4.60;99.90
18339;DHT22;9295;44.484;11.240;2023-04-07T01:49:17;4.70;99.90
18339;DHT22;9295;44.484;11.240;2023-04-07T01:51:47;4.70;99.90
18339;DHT22;9295;44.484;11.240;2023-04-07T01:54:17;4.60;99.90
18339;DHT22;9295;44.484;11.240;2023-04-07T01:56:45;4.60;99.90
18339;DHT22;9295;44.484;11.240;2023-04-07T01:59:14;4.60;99.90
18339;DHT22;9295;44.484;11.240;2023-04-07T02:01:44;4.60;99.90
18339;DHT22;9295;44.484;11.240;2023-04-07T02:04:19;4.60;99.90
18339;DHT22;9295;44.484;11.240;2023-04-07T02:06:52;4.50;99.90
18339;DHT22;9295;44.484;11.240;2023-04-07T02:09:31;4.50;99.90
18339;DHT22;9295;44.484;11.240;2023-04-07T02:12:01;4.50;99.90
18339;DHT22;9295;44.484;11.240;2023-04-07T02:14:35;4.50;99.90
18339;DHT22;9295;44.484;11.240;2023-04-07T02:17:08;4.50;99.90
18339;DHT22;9295;44.484;11.240;2023-04-07T02:19:40;4.50;99.90
18339;DHT22;9295;44.484;11.240;2023-04-07T02:22:10;4.50;99.90
18339;DHT22;9295;44.484;11.240;2023-04-07T02:24:40;4.50;99.90
18339;DHT22;9295;44.484;11.240;2023-04-07T02:27:08;4.50;99.90
18339;DHT22;9295;44.484;11.240;2023-04-07T02:29:37;4.50;99.90
18339;DHT22;9295;44.484;11.240;2023-04-07T02:32:06;4.50;99.90
18339;DHT22;9295;44.484;11.240;2023-04-07T02:34:34;4.50;99.90
18339;DHT22;9295;44.484;11.240;2023-04-07T02:37:04;4.50;99.90
18339;DHT22;9295;44.484;11.240;2023-04-07T02:39:33;4.50;99.90
18339;DHT22;9295;44.484;11.240;2023-04-07T02:42:01;4.50;99.90
18339;DHT22;9295;44.484;11.240;2023-04-07T02:44:30;4.40;99.90
18339;DHT22;9295;44.484;11.240;2023-04-07T02:46:58;4.50;99.90
18339;DHT22;9295;44.484;11.240;2023-04-07T02:49:26;4.50;99.90
18339;DHT22;9295;44.484;11.240;2023-04-07T02:51:55;4.50;99.90
18339;DHT22;9295;44.484;11.240;2023-04-07T02:54:24;4.50;99.90
18339;DHT22;9295;44.484;11.240;2023-04-07T02:56:53;4.50;99.90
18339;DHT22;9295;44.484;11.240;2023-04-07T02:59:24;4.50;99.90
18339;DHT22;9295;44.484;11.240;2023-04-07T03:01:52;4.50;99.90
18339;DHT22;9295;44.484;11.240;2023-04-07T03:04:21;4.50;99.90
18339;DHT22;9295;44.484;11.240;2023-04-07T03:06:50;4.50;99.90
18339;DHT22;9295;44.484;11.240;2023-04-07T03:09:19;4.50;99.90
18339;DHT22;9295;44.484;11.240;2023-04-07T03:11:49;4.40;99.90
18339;DHT22;9295;44.484;11.240;2023-04-07T03:14:19;4.40;99.90
18339;DHT22;9295;44.484;11.240;2023-04-07T03:16:49;4.30;99.90
18339;DHT22;9295;44.484;11.240;2023-04-07T03:19:17;4.30;99.90
18339;DHT22;9295;44.484;11.240;2023-04-07T03:21:48;4.20;99.90
18339;DHT22;9295;44.484;11.240;2023-04-07T03:24:17;4.20;99.90
18339;DHT22;9295;44.484;11.240;2023-04-07T03:26:46;4.20;99.90
18339;DHT22;9295;44.484;11.240;2023-04-07T03:29:22;4.20;99.90
18339;DHT22;9295;44.484;11.240;2023-04-07T03:31:51;4.20;99.90
18339;DHT22;9295;44.484;11.240;2023-04-07T03:34:23;4.20;99.90
18339;DHT22;9295;44.484;11.240;2023-04-07T03:36:51;4.20;99.90
18339;DHT22;9295;44.484;11.240;2023-04-07T03:39:20;4.20;99.90
18339;DHT22;9295;44.484;11.240;2023-04-07T03:41:52;4.20;99.90
18339;DHT22;9295;44.484;11.240;2023-04-07T03:44:22;4.20;99.90
18339;DHT22;9295;44.484;11.240;2023-04-07T03:46:50;4.20;99.90
18339;DHT22;9295;44.484;11.240;2023-04-07T03:49:22;4.20;99.90
18339;DHT22;9295;44.484;11.240;2023-04-07T03:51:51;4.20;99.90
18339;DHT22;9295;44.484;11.240;2023-04-07T03:54:19;4.20;99.90
18339;DHT22;9295;44.484;11.240;2023-04-07T03:56:48;4.10;99.90
18339;DHT22;9295;44.484;11.240;2023-04-07T03:59:22;4.10;99.90
18339;DHT22;9295;44.484;11.240;2023-04-07T04:01:56;4.10;99.90
18339;DHT22;9295;44.484;11.240;2023-04-07T04:04:25;4.10;99.90
18339;DHT22;9295;44.484;11.240;2023-04-07T04:06:54;4.10;99.90
18339;DHT22;9295;44.484;11.240;2023-04-07T04:09:46;4.00;99.90
18339;DHT22;9295;44.484;11.240;2023-04-07T04:12:14;4.00;99.90
18339;DHT22;9295;44.484;11.240;2023-04-07T04:14:59;4.00;99.90
18339;DHT22;9295;44.484;11.240;2023-04-07T04:17:28;3.90;99.90
18339;DHT22;9295;44.484;11.240;2023-04-07T04:19:57;4.00;99.90
18339;DHT22;9295;44.484;11.240;2023-04-07T04:22:36;4.00;99.90
18339;DHT22;9295;44.484;11.240;2023-04-07T04:25:06;4.10;99.90
18339;DHT22;9295;44.484;11.240;2023-04-07T04:27:35;4.10;99.90
18339;DHT22;9295;44.484;11.240;2023-04-07T04:30:12;4.10;99.90
18339;DHT22;9295;44.484;11.240;2023-04-07T04:32:50;4.00;99.90
18339;DHT22;9295;44.484;11.240;2023-04-07T04:35:26;4.00;99.90
18339;DHT22;9295;44.484;11.240;2023-04-07T04:38:07;3.90;99.90
18339;DHT22;9295;44.484;11.240;2023-04-07T04:40:40;3.80;99.90
18339;DHT22;9295;44.484;11.240;2023-04-07T04:43:09;3.80;99.90
18339;DHT22;9295;44.484;11.240;2023-04-07T04:45:40;3.70;99.90
18339;DHT22;9295;44.484;11.240;2023-04-07T04:48:12;3.70;99.90
18339;DHT22;9295;44.484;11.240;2023-04-07T04:50:41;3.70;99.90
18339;DHT22;9295;44.484;11.240;2023-04-07T04:53:12;3.70;99.90
18339;DHT22;9295;44.484;11.240;2023-04-07T04:55:53;3.70;99.90
18339;DHT22;9295;44.484;11.240;2023-04-07T04:58:32;3.80;99.90
18339;DHT22;9295;44.484;11.240;2023-04-07T05:01:01;3.80;99.90
18339;DHT22;9295;44.484;11.240;2023-04-07T05:03:39;3.80;99.90
18339;DHT22;9295;44.484;11.240;2023-04-07T05:06:16;3.80;99.90
18339;DHT22;9295;44.484;11.240;2023-04-07T05:08:47;3.80;99.90
18339;DHT22;9295;44.484;11.240;2023-04-07T05:11:19;3.90;99.90
18339;DHT22;9295;44.484;11.240;2023-04-07T05:13:51;3.90;99.90
18339;DHT22;9295;44.484;11.240;2023-04-07T05:16:21;3.90;99.90
18339;DHT22;9295;44.484;11.240;2023-04-07T05:18:50;4.00;99.90
18339;DHT22;9295;44.484;11.240;2023-04-07T05:21:19;4.10;99.90
18339;DHT22;9295;44.484;11.240;2023-04-07T05:23:50;4.10;99.90
18339;DHT22;9295;44.484;11.240;2023-04-07T05:26:21;4.20;99.90
18339;DHT22;9295;44.484;11.240;2023-04-07T05:28:50;4.20;99.90
18339;DHT22;9295;44.484;11.240;2023-04-07T05:31:23;4.30;99.90
18339;DHT22;9295;44.484;11.240;2023-04-07T05:33:55;4.40;99.90
18339;DHT22;9295;44.484;11.240;2023-04-07T05:36:27;4.50;99.90
18339;DHT22;9295;44.484;11.240;2023-04-07T05:38:56;4.60;99.90
18339;DHT22;9295;44.484;11.240;2023-04-07T05:41:26;4.70;99.90
18339;DHT22;9295;44.484;11.240;2023-04-07T05:43:54;4.90;99.90
18339;DHT22;9295;44.484;11.240;2023-04-07T05:46:24;5.00;99.90
18339;DHT22;9295;44.484;11.240;2023-04-07T05:48:56;5.30;99.90
18339;DHT22;9295;44.484;11.240;2023-04-07T05:51:31;5.50;99.90
18339;DHT22;9295;44.484;11.240;2023-04-07T05:54:04;5.70;99.90
18339;DHT22;9295;44.484;11.240;2023-04-07T05:56:32;6.00;99.90
18339;DHT22;9295;44.484;11.240;2023-04-07T05:59:01;7.00;99.90
18339;DHT22;9295;44.484;11.240;2023-04-07T06:01:31;8.10;99.90
18339;DHT22;9295;44.484;11.240;2023-04-07T06:03:59;10.10;99.90
18339;DHT22;9295;44.484;11.240;2023-04-07T06:06:29;12.10;99.90
18339;DHT22;9295;44.484;11.240;2023-04-07T06:08:58;13.30;99.90
18339;DHT22;9295;44.484;11.240;2023-04-07T06:11:26;13.50;99.10
18339;DHT22;9295;44.484;11.240;2023-04-07T06:13:55;13.80;97.10
18339;DHT22;9295;44.484;11.240;2023-04-07T06:16:23;13.60;96.20
18339;DHT22;9295;44.484;11.240;2023-04-07T06:18:53;13.70;95.50
18339;DHT22;9295;44.484;11.240;2023-04-07T06:21:22;15.20;99.30
18339;DHT22;9295;44.484;11.240;2023-04-07T06:23:51;17.10;96.20
18339;DHT22;9295;44.484;11.240;2023-04-07T06:26:20;18.70;90.60
18339;DHT22;9295;44.484;11.240;2023-04-07T06:28:49;19.60;86.40
18339;DHT22;9295;44.484;11.240;2023-04-07T06:31:18;19.90;69.50
18339;DHT22;9295;44.484;11.240;2023-04-07T06:33:47;19.00;68.10
18339;DHT22;9295;44.484;11.240;2023-04-07T06:36:18;18.20;67.50
18339;DHT22;9295;44.484;11.240;2023-04-07T06:38:46;18.60;68.40
18339;DHT22;9295;44.484;11.240;2023-04-07T06:41:14;19.10;70.50
18339;DHT22;9295;44.484;11.240;2023-04-07T06:43:45;20.30;65.80
18339;DHT22;9295;44.484;11.240;2023-04-07T06:46:14;21.30;61.90
18339;DHT22;9295;44.484;11.240;2023-04-07T06:48:42;22.20;59.10
18339;DHT22;9295;44.484;11.240;2023-04-07T06:51:10;22.00;54.10
18339;DHT22;9295;44.484;11.240;2023-04-07T06:53:40;21.10;54.90
18339;DHT22;9295;44.484;11.240;2023-04-07T06:56:11;21.20;56.30
18339;DHT22;9295;44.484;11.240;2023-04-07T06:58:39;22.50;54.40
18339;DHT22;9295;44.484;11.240;2023-04-07T07:01:07;23.30;52.60
18339;DHT22;9295;44.484;11.240;2023-04-07T07:03:36;23.90;50.50
18339;DHT22;9295;44.484;11.240;2023-04-07T07:06:04;23.10;48.70
18339;DHT22;9295;44.484;11.240;2023-04-07T07:08:33;22.10;50.60
18339;DHT22;9295;44.484;11.240;2023-04-07T07:11:04;21.50;52.20
18339;DHT22;9295;44.484;11.240;2023-04-07T07:13:32;22.80;51.20
18339;DHT22;9295;44.484;11.240;2023-04-07T07:16:01;23.70;50.70
18339;DHT22;9295;44.484;11.240;2023-04-07T07:18:29;24.30;49.50
18339;DHT22;9295;44.484;11.240;2023-04-07T07:20:58;25.00;48.10
18339;DHT22;9295;44.484;11.240;2023-04-07T07:23:26;25.10;46.10
18339;DHT22;9295;44.484;11.240;2023-04-07T07:25:54;25.00;45.40
18339;DHT22;9295;44.484;11.240;2023-04-07T07:28:24;24.80;44.60
18339;DHT22;9295;44.484;11.240;2023-04-07T07:30:55;24.70;44.30
18339;DHT22;9295;44.484;11.240;2023-04-07T07:33:23;25.10;44.20
18339;DHT22;9295;44.484;11.240;2023-04-07T07:35:51;25.30;43.90
18339;DHT22;9295;44.484;11.240;2023-04-07T07:38:20;24.40;43.80
18339;DHT22;9295;44.484;11.240;2023-04-07T07:40:48;24.10;45.60
18339;DHT22;9295;44.484;11.240;2023-04-07T07:43:18;25.00;45.10
18339;DHT22;9295;44.484;11.240;2023-04-07T07:45:47;25.20;43.70
18339;DHT22;9295;44.484;11.240;2023-04-07T07:48:16;23.90;43.60
18339;DHT22;9295;44.484;11.240;2023-04-07T07:50:44;22.70;45.30
18339;DHT22;9295;44.484;11.240;2023-04-07T07:53:14;23.90;44.80
18339;DHT22;9295;44.484;11.240;2023-04-07T07:55:44;24.90;44.10
18339;DHT22;9295;44.484;11.240;2023-04-07T07:58:12;25.20;43.60
18339;DHT22;9295;44.484;11.240;2023-04-07T08:00:41;25.90;43.00
18339;DHT22;9295;44.484;11.240;2023-04-07T08:03:10;26.00;42.40
18339;DHT22;9295;44.484;11.240;2023-04-07T08:05:39;24.00;43.60
18339;DHT22;9295;44.484;11.240;2023-04-07T08:08:08;23.20;45.60
18339;DHT22;9295;44.484;11.240;2023-04-07T08:10:37;23.70;45.70
18339;DHT22;9295;44.484;11.240;2023-04-07T08:13:06;24.60;44.80
18339;DHT22;9295;44.484;11.240;2023-04-07T08:15:34;25.40;44.00
18339;DHT22;9295;44.484;11.240;2023-04-07T08:18:02;25.90;42.80
18339;DHT22;9295;44.484;11.240;2023-04-07T08:20:33;25.90;42.40
18339;DHT22;9295;44.484;11.240;2023-04-07T08:23:02;24.70;42.70
18339;DHT22;9295;44.484;11.240;2023-04-07T08:25:31;23.50;44.10
18339;DHT22;9295;44.484;11.240;2023-04-07T08:27:59;24.00;43.90
18339;DHT22;9295;44.484;11.240;2023-04-07T08:30:27;24.10;43.50
18339;DHT22;9295;44.484;11.240;2023-04-07T08:32:56;23.50;44.10
18339;DHT22;9295;44.484;11.240;2023-04-07T08:35:24;23.10;44.80
18339;DHT22;9295;44.484;11.240;2023-04-07T08:37:54;22.40;45.80
18339;DHT22;9295;44.484;11.240;2023-04-07T08:40:23;21.90;47.00
18339;DHT22;9295;44.484;11.240;2023-04-07T08:42:51;21.20;48.40
18339;DHT22;9295;44.484;11.240;2023-04-07T08:45:21;20.10;49.10
18339;DHT22;9295;44.484;11.240;2023-04-07T08:47:52;19.50;51.20
18339;DHT22;9295;44.484;11.240;2023-04-07T08:50:25;19.20;52.30
18339;DHT22;9295;44.484;11.240;2023-04-07T08:52:56;19.30;53.00
18339;DHT22;9295;44.484;11.240;2023-04-07T08:55:27;19.30;52.80
18339;DHT22;9295;44.484;11.240;2023-04-07T08:57:56;18.80;52.90
18339;DHT22;9295;44.484;11.240;2023-04-07T09:00:28;18.80;52.60
18339;DHT22;9295;44.484;11.240;2023-04-07T09:02:59;18.30;53.00
18339;DHT22;9295;44.484;11.240;2023-04-07T09:05:30;18.20;53.40
18339;DHT22;9295;44.484;11.240;2023-04-07T09:08:01;18.10;54.30
18339;DHT22;9295;44.484;11.240;2023-04-07T09:10:29;17.70;53.80
18339;DHT22;9295;44.484;11.240;2023-04-07T09:12:58;17.40;53.50
18339;DHT22;9295;44.484;11.240;2023-04-07T09:15:29;17.40;53.50
18339;DHT22;9295;44.484;11.240;2023-04-07T09:17:58;17.40;54.70
18339;DHT22;9295;44.484;11.240;2023-04-07T09:20:26;17.20;56.20
18339;DHT22;9295;44.484;11.240;2023-04-07T09:22:55;17.50;56.10
18339;DHT22;9295;44.484;11.240;2023-04-07T09:25:24;17.00;55.50
18339;DHT22;9295;44.484;11.240;2023-04-07T09:27:58;16.80;55.70
18339;DHT22;9295;44.484;11.240;2023-04-07T09:30:27;16.70;55.40
18339;DHT22;9295;44.484;11.240;2023-04-07T09:32:56;16.50;56.70
18339;DHT22;9295;44.484;11.240;2023-04-07T09:35:25;16.30;58.00
18339;DHT22;9295;44.484;11.240;2023-04-07T09:38:02;16.70;58.10
18339;DHT22;9295;44.484;11.240;2023-04-07T09:40:32;16.90;58.30
18339;DHT22;9295;44.484;11.240;2023-04-07T09:43:02;17.00;58.70
18339;DHT22;9295;44.484;11.240;2023-04-07T09:45:31;17.40;58.70
18339;DHT22;9295;44.484;11.240;2023-04-07T09:48:06;17.40;57.40
18339;DHT22;9295;44.484;11.240;2023-04-07T09:50:37;17.20;56.90
18339;DHT22;9295;44.484;11.240;2023-04-07T09:53:07;17.30;57.10
18339;DHT22;9295;44.484;11.240;2023-04-07T09:55:39;17.10;56.80
18339;DHT22;9295;44.484;11.240;2023-04-07T09:58:10;17.10;57.20
18339;DHT22;9295;44.484;11.240;2023-04-07T10:00:39;17.30;56.90
18339;DHT22;9295;44.484;11.240;2023-04-07T10:03:08;17.40;56.50
18339;DHT22;9295;44.484;11.240;2023-04-07T10:05:37;17.40;55.90
18339;DHT22;9295;44.484;11.240;2023-04-07T10:08:06;17.50;56.20
18339;DHT22;9295;44.484;11.240;2023-04-07T10:10:37;17.60;55.90
18339;DHT22;9295;44.484;11.240;2023-04-07T10:13:09;17.40;55.90
18339;DHT22;9295;44.484;11.240;2023-04-07T10:15:37;17.00;56.20
18339;DHT22;9295;44.484;11.240;2023-04-07T10:18:07;16.50;56.40
18339;DHT22;9295;44.484;11.240;2023-04-07T10:20:38;16.40;57.70
18339;DHT22;9295;44.484;11.240;2023-04-07T10:23:15;16.40;57.50
18339;DHT22;9295;44.484;11.240;2023-04-07T10:25:49;16.60;57.20
18339;DHT22;9295;44.484;11.240;2023-04-07T10:28:21;16.90;57.40
18339;DHT22;9295;44.484;11.240;2023-04-07T10:30:50;17.30;57.30
18339;DHT22;9295;44.484;11.240;2023-04-07T10:33:43;17.30;55.80
18339;DHT22;9295;44.484;11.240;2023-04-07T10:36:13;17.30;55.90
18339;DHT22;9295;44.484;11.240;2023-04-07T10:38:41;17.50;56.10
18339;DHT22;9295;44.484;11.240;2023-04-07T10:41:35;17.40;56.30
18339;DHT22;9295;44.484;11.240;2023-04-07T10:44:04;17.60;56.40
18339;DHT22;9295;44.484;11.240;2023-04-07T10:47:01;17.70;55.50
18339;DHT22;9295;44.484;11.240;2023-04-07T10:49:30;17.60;55.80
18339;DHT22;9295;44.484;11.240;2023-04-07T10:52:21;17.60;55.30
18339;DHT22;9295;44.484;11.240;2023-04-07T11:01:16;16.90;56.10
18339;DHT22;9295;44.484;11.240;2023-04-07T11:03:57;16.90;56.70
18339;DHT22;9295;44.484;11.240;2023-04-07T11:06:26;16.60;56.60
18339;DHT22;9295;44.484;11.240;2023-04-07T11:08:55;16.60;56.80
18339;DHT22;9295;44.484;11.240;2023-04-07T11:11:40;16.80;57.50
18339;DHT22;9295;44.484;11.240;2023-04-07T11:14:08;17.00;57.90
18339;DHT22;9295;44.484;11.240;2023-04-07T11:16:43;16.90;57.30
18339;DHT22;9295;44.484;11.240;2023-04-07T11:19:11;16.90;57.90
18339;DHT22;9295;44.484;11.240;2023-04-07T11:21:40;17.10;57.80
18339;DHT22;9295;44.484;11.240;2023-04-07T11:24:08;17.10;57.50
18339;DHT22;9295;44.484;11.240;2023-04-07T11:26:39;17.20;57.30
18339;DHT22;9295;44.484;11.240;2023-04-07T11:29:07;17.40;57.20
18339;DHT22;9295;44.484;11.240;2023-04-07T11:31:37;17.20;56.50
18339;DHT22;9295;44.484;11.240;2023-04-07T11:34:07;16.90;57.20
18339;DHT22;9295;44.484;11.240;2023-04-07T11:36:38;17.00;57.80
18339;DHT22;9295;44.484;11.240;2023-04-07T11:39:17;17.30;57.90
18339;DHT22;9295;44.484;11.240;2023-04-07T11:41:47;17.60;57.20
18339;DHT22;9295;44.484;11.240;2023-04-07T11:44:16;17.80;57.00
18339;DHT22;9295;44.484;11.240;2023-04-07T11:46:54;17.30;56.80
18339;DHT22;9295;44.484;11.240;2023-04-07T11:49:25;17.30;57.40
18339;DHT22;9295;44.484;11.240;2023-04-07T11:51:57;17.40;57.20
18339;DHT22;9295;44.484;11.240;2023-04-07T11:54:37;17.50;57.60
18339;DHT22;9295;44.484;11.240;2023-04-07T11:57:05;17.80;57.50
18339;DHT22;9295;44.484;11.240;2023-04-07T11:59:36;18.10;57.00
18339;DHT22;9295;44.484;11.240;2023-04-07T12:02:05;18.10;56.60
18339;DHT22;9295;44.484;11.240;2023-04-07T12:04:36;17.90;56.50
18339;DHT22;9295;44.484;11.240;2023-04-07T12:07:07;17.90;56.50
18339;DHT22;9295;44.484;11.240;2023-04-07T12:09:36;17.90;56.80
18339;DHT22;9295;44.484;11.240;2023-04-07T12:12:06;17.70;56.60
18339;DHT22;9295;44.484;11.240;2023-04-07T12:14:36;17.80;56.80
18339;DHT22;9295;44.484;11.240;2023-04-07T12:17:04;17.90;56.80
18339;DHT22;9295;44.484;11.240;2023-04-07T12:19:36;18.10;56.80
18339;DHT22;9295;44.484;11.240;2023-04-07T12:22:05;17.90;56.20
18339;DHT22;9295;44.484;11.240;2023-04-07T12:24:34;18.00;57.40
18339;DHT22;9295;44.484;11.240;2023-04-07T12:27:03;18.00;57.20
18339;DHT22;9295;44.484;11.240;2023-04-07T12:29:32;17.90;57.40
18339;DHT22;9295;44.484;11.240;2023-04-07T12:32:00;17.70;58.10
18339;DHT22;9295;44.484;11.240;2023-04-07T12:34:28;18.10;58.80
18339;DHT22;9295;44.484;11.240;2023-04-07T12:36:58;18.20;57.80
18339;DHT22;9295;44.484;11.240;2023-04-07T12:39:27;18.20;58.50
18339;DHT22;9295;44.484;11.240;2023-04-07T12:41:55;18.10;57.80
18339;DHT22;9295;44.484;11.240;2023-04-07T12:44:24;18.10;58.20
18339;DHT22;9295;44.484;11.240;2023-04-07T12:46:52;18.20;58.30
18339;DHT22;9295;44.484;11.240;2023-04-07T12:49:20;18.10;58.10
18339;DHT22;9295;44.484;11.240;2023-04-07T12:51:49;18.00;57.40
18339;DHT22;9295;44.484;11.240;2023-04-07T12:54:20;18.10;58.70
18339;DHT22;9295;44.484;11.240;2023-04-07T12:56:48;17.90;57.70
18339;DHT22;9295;44.484;11.240;2023-04-07T12:59:17;17.70;58.30
18339;DHT22;9295;44.484;11.240;2023-04-07T13:01:46;17.50;58.20
18339;DHT22;9295;44.484;11.240;2023-04-07T13:04:17;17.30;58.80
18339;DHT22;9295;44.484;11.240;2023-04-07T13:06:45;17.30;59.20
18339;DHT22;9295;44.484;11.240;2023-04-07T13:09:14;17.30;59.10
18339;DHT22;9295;44.484;11.240;2023-04-07T13:11:43;17.30;59.20
18339;DHT22;9295;44.484;11.240;2023-04-07T13:14:12;17.60;59.30
18339;DHT22;9295;44.484;11.240;2023-04-07T13:16:41;17.50;58.90
18339;DHT22;9295;44.484;11.240;2023-04-07T13:19:09;17.40;58.60
18339;DHT22;9295;44.484;11.240;2023-04-07T13:21:38;17.30;59.10
18339;DHT22;9295;44.484;11.240;2023-04-07T13:24:13;17.40;59.20
18339;DHT22;9295;44.484;11.240;2023-04-07T13:26:42;17.50;58.40
18339;DHT22;9295;44.484;11.240;2023-04-07T13:29:11;17.50;58.60
18339;DHT22;9295;44.484;11.240;2023-04-07T13:31:39;17.60;58.70
18339;DHT22;9295;44.484;11.240;2023-04-07T13:34:08;17.70;58.00
18339;DHT22;9295;44.484;11.240;2023-04-07T13:36:36;17.80;57.70
18339;DHT22;9295;44.484;11.240;2023-04-07T13:39:04;17.80;57.90
18339;DHT22;9295;44.484;11.240;2023-04-07T13:41:33;17.80;57.70
18339;DHT22;9295;44.484;11.240;2023-04-07T13:44:02;17.80;57.50
18339;DHT22;9295;44.484;11.240;2023-04-07T13:46:31;17.80;57.50
18339;DHT22;9295;44.484;11.240;2023-04-07T13:48:59;17.80;57.20
18339;DHT22;9295;44.484;11.240;2023-04-07T13:51:28;17.80;57.40
18339;DHT22;9295;44.484;11.240;2023-04-07T13:53:56;17.70;57.60
18339;DHT22;9295;44.484;11.240;2023-04-07T13:56:24;17.70;57.80
18339;DHT22;9295;44.484;11.240;2023-04-07T13:58:53;17.60;57.50
18339;DHT22;9295;44.484;11.240;2023-04-07T14:01:23;17.70;58.00
18339;DHT22;9295;44.484;11.240;2023-04-07T14:03:51;17.70;58.10
18339;DHT22;9295;44.484;11.240;2023-04-07T14:06:20;17.70;58.30
18339;DHT22;9295;44.484;11.240;2023-04-07T14:08:49;17.60;57.90
18339;DHT22;9295;44.484;11.240;2023-04-07T14:11:17;17.70;58.20
18339;DHT22;9295;44.484;11.240;2023-04-07T14:13:46;17.70;58.30
18339;DHT22;9295;44.484;11.240;2023-04-07T14:16:15;17.70;58.20
18339;DHT22;9295;44.484;11.240;2023-04-07T14:18:45;17.70;58.10
18339;DHT22;9295;44.484;11.240;2023-04-07T14:21:15;17.60;58.20
18339;DHT22;9295;44.484;11.240;2023-04-07T14:23:43;17.40;58.40
18339;DHT22;9295;44.484;11.240;2023-04-07T14:26:12;17.30;59.00
18339;DHT22;9295;44.484;11.240;2023-04-07T14:28:40;17.30;59.50
18339;DHT22;9295;44.484;11.240;2023-04-07T14:31:11;17.20;59.40
18339;DHT22;9295;44.484;11.240;2023-04-07T14:33:41;17.20;59.60
18339;DHT22;9295;44.484;11.240;2023-04-07T14:36:13;17.10;59.90
18339;DHT22;9295;44.484;11.240;2023-04-07T14:38:42;17.10;60.20
18339;DHT22;9295;44.484;11.240;2023-04-07T14:41:10;17.20;60.20
18339;DHT22;9295;44.484;11.240;2023-04-07T14:43:39;17.20;60.20
18339;DHT22;9295;44.484;11.240;2023-04-07T14:46:08;17.10;60.80
18339;DHT22;9295;44.484;11.240;2023-04-07T14:48:38;17.10;61.40
18339;DHT22;9295;44.484;11.240;2023-04-07T14:51:11;16.90;64.10
18339;DHT22;9295;44.484;11.240;2023-04-07T14:53:39;16.80;70.00
18339;DHT22;9295;44.484;11.240;2023-04-07T14:56:09;16.70;72.70
18339;DHT22;9295;44.484;11.240;2023-04-07T14:58:38;16.60;75.00
18339;DHT22;9295;44.484;11.240;2023-04-07T15:01:06;16.50;77.10
18339;DHT22;9295;44.484;11.240;2023-04-07T15:03:35;16.40;81.20
18339;DHT22;9295;44.484;11.240;2023-04-07T15:06:07;16.20;84.80
18339;DHT22;9295;44.484;11.240;2023-04-07T15:08:37;16.10;86.60
18339;DHT22;9295;44.484;11.240;2023-04-07T15:11:06;16.00;88.20
18339;DHT22;9295;44.484;11.240;2023-04-07T15:13:35;15.90;89.40
18339;DHT22;9295;44.484;11.240;2023-04-07T15:16:07;15.80;90.00
18339;DHT22;9295;44.484;11.240;2023-04-07T15:18:38;15.80;90.40
18339;DHT22;9295;44.484;11.240;2023-04-07T15:21:07;15.60;90.50
18339;DHT22;9295;44.484;11.240;2023-04-07T15:23:37;15.60;91.00
18339;DHT22;9295;44.484;11.240;2023-04-07T15:26:07;15.50;91.20
18339;DHT22;9295;44.484;11.240;2023-04-07T15:28:36;15.50;91.30
18339;DHT22;9295;44.484;11.240;2023-04-07T15:31:04;15.50;91.30
18339;DHT22;9295;44.484;11.240;2023-04-07T15:33:35;15.50;91.50
18339;DHT22;9295;44.484;11.240;2023-04-07T15:36:04;15.40;91.40
18339;DHT22;9295;44.484;11.240;2023-04-07T15:38:33;15.40;91.50
18339;DHT22;9295;44.484;11.240;2023-04-07T15:41:03;15.30;91.40
18339;DHT22;9295;44.484;11.240;2023-04-07T15:43:31;15.30;91.40
18339;DHT22;9295;44.484;11.240;2023-04-07T15:46:00;15.20;91.30
18339;DHT22;9295;44.484;11.240;2023-04-07T15:48:28;15.10;91.10
18339;DHT22;9295;44.484;11.240;2023-04-07T15:50:57;15.10;91.50
18339;DHT22;9295;44.484;11.240;2023-04-07T15:53:25;15.00;91.60
18339;DHT22;9295;44.484;11.240;2023-04-07T15:55:53;15.00;91.80
18339;DHT22;9295;44.484;11.240;2023-04-07T15:58:23;14.80;92.10
18339;DHT22;9295;44.484;11.240;2023-04-07T16:00:52;14.60;93.00
18339;DHT22;9295;44.484;11.240;2023-04-07T16:03:20;14.40;94.00
18339;DHT22;9295;44.484;11.240;2023-04-07T16:05:48;14.40;94.50